sensor_id;sensor_type;location;lat;lon;timestamp;P1;durP1;ratioP1;P2;durP2;ratioP2
15454;SDS011;21057;51.024;7.540;2024-03-08T00:00:27;25.30;;;23.37;;
15454;SDS011;21057;51.024;7.540;2024-03-08T00:02:57;27.73;;;25.53;;
15454;SDS011;21057;51.024;7.540;2024-03-08T00:05:26;27.60;;;25.13;;
15454;SDS011;21057;51.024;7.540;2024-03-08T00:07:54;27.33;;;24.93;;
15454;SDS011;21057;51.024;7.540;2024-03-08T00:10:21;27.00;;;24.77;;
15454;SDS011;21057;51.024;7.540;2024-03-08T00:12:48;26.17;;;24.10;;
15454;SDS011;21057;51.024;7.540;2024-03-08T00:15:17;25.83;;;23.23;;
15454;SDS011;21057;51.024;7.540;2024-03-08T00:17:44;26.87;;;24.37;;
15454;SDS011;21057;51.024;7.540;2024-03-08T00:20:11;28.73;;;25.90;;
15454;SDS011;21057;51.024;7.540;2024-03-08T00:22:38;28.33;;;26.00;;
15454;SDS011;21057;51.024;7.540;2024-03-08T00:25:07;25.07;;;23.03;;
15454;SDS011;21057;51.024;7.540;2024-03-08T00:27:34;26.17;;;24.20;;
15454;SDS011;21057;51.024;7.540;2024-03-08T00:30:01;28.03;;;25.90;;
15454;SDS011;21057;51.024;7.540;2024-03-08T00:32:28;29.40;;;26.43;;
15454;SDS011;21057;51.024;7.540;2024-03-08T00:34:56;27.37;;;25.13;;
15454;SDS011;21057;51.024;7.540;2024-03-08T00:37:23;29.17;;;26.43;;
15454;SDS011;21057;51.024;7.540;2024-03-08T00:39:49;28.70;;;25.87;;
15454;SDS011;21057;51.024;7.540;2024-03-08T00:42:18;26.10;;;24.10;;
15454;SDS011;21057;51.024;7.540;2024-03-08T00:44:45;26.27;;;24.30;;
15454;SDS011;21057;51.024;7.540;2024-03-08T00:47:13;27.77;;;25.20;;
15454;SDS011;21057;51.024;7.540;2024-03-08T00:49:40;27.80;;;25.50;;
15454;SDS011;21057;51.024;7.540;2024-03-08T00:52:08;27.20;;;24.47;;
15454;SDS011;21057;51.024;7.540;2024-03-08T00:54:35;27.03;;;24.63;;
15454;SDS011;21057;51.024;7.540;2024-03-08T00:57:02;26.97;;;24.87;;
15454;SDS011;21057;51.024;7.540;2024-03-08T00:59:31;26.87;;;24.47;;
15454;SDS011;21057;51.024;7.540;2024-03-08T01:01:58;27.40;;;24.90;;
15454;SDS011;21057;51.024;7.540;2024-03-08T01:04:25;27.57;;;24.83;;
15454;SDS011;21057;51.024;7.540;2024-03-08T01:06:54;26.77;;;24.57;;
15454;SDS011;21057;51.024;7.540;2024-03-08T01:09:21;32.27;;;25.83;;
15454;SDS011;21057;51.024;7.540;2024-03-08T01:11:48;28.20;;;25.90;;
15454;SDS011;21057;51.024;7.540;2024-03-08T01:14:15;27.23;;;24.97;;
15454;SDS011;21057;51.024;7.540;2024-03-08T01:16:43;28.17;;;25.57;;
15454;SDS011;21057;51.024;7.540;2024-03-08T01:19:10;27.67;;;25.37;;
15454;SDS011;21057;51.024;7.540;2024-03-08T01:21:37;28.03;;;25.60;;
15454;SDS011;21057;51.024;7.540;2024-03-08T01:24:04;26.70;;;24.70;;
15454;SDS011;21057;51.024;7.540;2024-03-08T01:26:31;28.07;;;25.63;;
15454;SDS011;21057;51.024;7.540;2024-03-08T01:28:59;27.13;;;24.90;;
15454;SDS011;21057;51.024;7.540;2024-03-08T01:31:28;26.03;;;24.03;;
15454;SDS011;21057;51.024;7.540;2024-03-08T01:33:56;26.93;;;24.80;;
15454;SDS011;21057;51.024;7.540;2024-03-08T01:36:23;26.60;;;24.40;;
15454;SDS011;21057;51.024;7.540;2024-03-08T01:38:49;27.80;;;25.27;;
15454;SDS011;21057;51.024;7.540;2024-03-08T01:41:16;27.37;;;25.07;;
15454;SDS011;21057;51.024;7.540;2024-03-08T01:43:43;29.50;;;26.77;;
15454;SDS011;21057;51.024;7.540;2024-03-08T01:46:10;28.90;;;26.50;;
15454;SDS011;21057;51.024;7.540;2024-03-08T01:48:41;26.97;;;24.60;;
15454;SDS011;21057;51.024;7.540;2024-03-08T01:51:10;27.57;;;24.97;;
15454;SDS011;21057;51.024;7.540;2024-03-08T01:53:37;26.20;;;24.03;;
15454;SDS011;21057;51.024;7.540;2024-03-08T01:56:04;29.17;;;26.40;;
15454;SDS011;21057;51.024;7.540;2024-03-08T01:58:33;26.27;;;24.00;;
15454;SDS011;21057;51.024;7.540;2024-03-08T02:01:02;27.27;;;24.87;;
15454;SDS011;21057;51.024;7.540;2024-03-08T02:03:29;28.07;;;25.77;;
15454;SDS011;21057;51.024;7.540;2024-03-08T02:05:56;27.00;;;24.80;;
15454;SDS011;21057;51.024;7.540;2024-03-08T02:08:25;26.63;;;24.67;;
15454;SDS011;21057;51.024;7.540;2024-03-08T02:10:52;28.57;;;26.33;;
15454;SDS011;21057;51.024;7.540;2024-03-08T02:13:19;30.53;;;27.17;;
15454;SDS011;21057;51.024;7.540;2024-03-08T02:15:52;27.20;;;25.20;;
15454;SDS011;21057;51.024;7.540;2024-03-08T02:18:20;29.27;;;26.70;;
15454;SDS011;21057;51.024;7.540;2024-03-08T02:20:48;29.03;;;26.00;;
15454;SDS011;21057;51.024;7.540;2024-03-08T02:23:15;28.50;;;25.80;;
15454;SDS011;21057;51.024;7.540;2024-03-08T02:25:42;27.40;;;24.90;;
15454;SDS011;21057;51.024;7.540;2024-03-08T02:28:10;25.47;;;23.17;;
15454;SDS011;21057;51.024;7.540;2024-03-08T02:30:38;26.67;;;24.40;;
15454;SDS011;21057;51.024;7.540;2024-03-08T02:33:05;26.40;;;24.20;;
15454;SDS011;21057;51.024;7.540;2024-03-08T02:35:34;25.43;;;23.53;;
15454;SDS011;21057;51.024;7.540;2024-03-08T02:38:03;29.77;;;26.73;;
15454;SDS011;21057;51.024;7.540;2024-03-08T02:40:30;26.83;;;24.87;;
15454;SDS011;21057;51.024;7.540;2024-03-08T02:42:57;27.80;;;25.53;;
15454;SDS011;21057;51.024;7.540;2024-03-08T02:45:24;28.13;;;25.57;;
15454;SDS011;21057;51.024;7.540;2024-03-08T02:47:51;27.57;;;25.17;;
15454;SDS011;21057;51.024;7.540;2024-03-08T02:50:18;27.50;;;25.33;;
15454;SDS011;21057;51.024;7.540;2024-03-08T02:52:45;26.87;;;24.63;;
15454;SDS011;21057;51.024;7.540;2024-03-08T02:55:14;28.73;;;26.03;;
15454;SDS011;21057;51.024;7.540;2024-03-08T02:57:41;26.20;;;24.33;;
15454;SDS011;21057;51.024;7.540;2024-03-08T03:00:09;27.97;;;25.63;;
15454;SDS011;21057;51.024;7.540;2024-03-08T03:02:36;25.60;;;23.73;;
15454;SDS011;21057;51.024;7.540;2024-03-08T03:05:03;29.37;;;26.83;;
15454;SDS011;21057;51.024;7.540;2024-03-08T03:07:31;26.47;;;24.37;;
15454;SDS011;21057;51.024;7.540;2024-03-08T03:09:58;25.17;;;23.27;;
15454;SDS011;21057;51.024;7.540;2024-03-08T03:12:27;27.60;;;25.30;;
15454;SDS011;21057;51.024;7.540;2024-03-08T03:14:55;28.90;;;26.17;;
15454;SDS011;21057;51.024;7.540;2024-03-08T03:17:22;28.30;;;26.03;;
15454;SDS011;21057;51.024;7.540;2024-03-08T03:19:49;27.43;;;25.33;;
15454;SDS011;21057;51.024;7.540;2024-03-08T03:22:16;26.03;;;23.83;;
15454;SDS011;21057;51.024;7.540;2024-03-08T03:24:43;27.43;;;24.97;;
15454;SDS011;21057;51.024;7.540;2024-03-08T03:27:11;28.47;;;25.90;;
15454;SDS011;21057;51.024;7.540;2024-03-08T03:29:39;27.77;;;25.30;;
15454;SDS011;21057;51.024;7.540;2024-03-08T03:32:07;26.63;;;24.60;;
15454;SDS011;21057;51.024;7.540;2024-03-08T03:34:34;28.60;;;25.93;;
15454;SDS011;21057;51.024;7.540;2024-03-08T03:37:02;26.03;;;24.23;;
15454;SDS011;21057;51.024;7.540;2024-03-08T03:39:28;29.00;;;26.40;;
15454;SDS011;21057;51.024;7.540;2024-03-08T03:41:56;28.53;;;25.80;;
15454;SDS011;21057;51.024;7.540;2024-03-08T03:44:23;26.83;;;24.80;;
15454;SDS011;21057;51.024;7.540;2024-03-08T03:46:51;27.50;;;25.30;;
15454;SDS011;21057;51.024;7.540;2024-03-08T03:49:18;29.53;;;26.43;;
15454;SDS011;21057;51.024;7.540;2024-03-08T03:51:45;27.80;;;24.83;;
15454;SDS011;21057;51.024;7.540;2024-03-08T03:54:12;27.60;;;25.50;;
15454;SDS011;21057;51.024;7.540;2024-03-08T03:56:40;27.23;;;24.90;;
15454;SDS011;21057;51.024;7.540;2024-03-08T03:59:07;28.03;;;25.80;;
15454;SDS011;21057;51.024;7.540;2024-03-08T04:01:33;29.67;;;26.70;;
15454;SDS011;21057;51.024;7.540;2024-03-08T04:04:02;28.97;;;26.20;;
15454;SDS011;21057;51.024;7.540;2024-03-08T04:06:30;29.50;;;26.63;;
15454;SDS011;21057;51.024;7.540;2024-03-08T04:08:57;28.90;;;26.47;;
15454;SDS011;21057;51.024;7.540;2024-03-08T04:11:23;26.67;;;24.47;;
15454;SDS011;21057;51.024;7.540;2024-03-08T04:13:50;26.70;;;24.70;;
15454;SDS011;21057;51.024;7.540;2024-03-08T04:16:17;29.10;;;26.37;;
15454;SDS011;21057;51.024;7.540;2024-03-08T04:18:44;27.37;;;25.03;;
15454;SDS011;21057;51.024;7.540;2024-03-08T04:21:12;27.00;;;24.73;;
15454;SDS011;21057;51.024;7.540;2024-03-08T04:23:39;28.70;;;25.87;;
15454;SDS011;21057;51.024;7.540;2024-03-08T04:26:06;27.80;;;25.50;;
15454;SDS011;21057;51.024;7.540;2024-03-08T04:28:34;28.93;;;26.33;;
15454;SDS011;21057;51.024;7.540;2024-03-08T04:31:02;28.83;;;26.33;;
15454;SDS011;21057;51.024;7.540;2024-03-08T04:33:29;26.37;;;24.20;;
15454;SDS011;21057;51.024;7.540;2024-03-08T04:35:56;26.07;;;23.87;;
15454;SDS011;21057;51.024;7.540;2024-03-08T04:38:24;24.73;;;22.93;;
15454;SDS011;21057;51.024;7.540;2024-03-08T04:40:51;24.63;;;22.67;;
15454;SDS011;21057;51.024;7.540;2024-03-08T04:43:18;26.87;;;24.43;;
15454;SDS011;21057;51.024;7.540;2024-03-08T04:45:45;26.67;;;24.53;;
15454;SDS011;21057;51.024;7.540;2024-03-08T04:48:13;25.83;;;23.57;;
15454;SDS011;21057;51.024;7.540;2024-03-08T04:50:40;26.77;;;23.90;;
15454;SDS011;21057;51.024;7.540;2024-03-08T04:53:07;28.70;;;26.23;;
15454;SDS011;21057;51.024;7.540;2024-03-08T04:55:35;27.70;;;25.50;;
15454;SDS011;21057;51.024;7.540;2024-03-08T04:58:02;27.43;;;25.13;;
15454;SDS011;21057;51.024;7.540;2024-03-08T05:00:30;27.70;;;25.07;;
15454;SDS011;21057;51.024;7.540;2024-03-08T05:02:57;25.97;;;24.07;;
15454;SDS011;21057;51.024;7.540;2024-03-08T05:05:24;26.60;;;24.37;;
15454;SDS011;21057;51.024;7.540;2024-03-08T05:07:53;25.67;;;23.83;;
15454;SDS011;21057;51.024;7.540;2024-03-08T05:10:20;25.47;;;23.70;;
15454;SDS011;21057;51.024;7.540;2024-03-08T05:12:48;28.43;;;25.73;;
15454;SDS011;21057;51.024;7.540;2024-03-08T05:15:15;28.00;;;25.07;;
15454;SDS011;21057;51.024;7.540;2024-03-08T05:17:42;26.40;;;24.30;;
15454;SDS011;21057;51.024;7.540;2024-03-08T05:20:10;29.13;;;26.63;;
15454;SDS011;21057;51.024;7.540;2024-03-08T05:22:38;26.10;;;23.97;;
15454;SDS011;21057;51.024;7.540;2024-03-08T05:25:05;27.87;;;25.60;;
15454;SDS011;21057;51.024;7.540;2024-03-08T05:27:34;27.70;;;25.70;;
15454;SDS011;21057;51.024;7.540;2024-03-08T05:30:02;26.53;;;24.30;;
15454;SDS011;21057;51.024;7.540;2024-03-08T05:32:30;27.47;;;25.10;;
15454;SDS011;21057;51.024;7.540;2024-03-08T05:34:57;26.33;;;24.17;;
15454;SDS011;21057;51.024;7.540;2024-03-08T05:37:24;26.50;;;24.60;;
15454;SDS011;21057;51.024;7.540;2024-03-08T05:39:51;27.50;;;25.23;;
15454;SDS011;21057;51.024;7.540;2024-03-08T05:42:18;28.70;;;25.93;;
15454;SDS011;21057;51.024;7.540;2024-03-08T05:44:45;28.77;;;25.97;;
15454;SDS011;21057;51.024;7.540;2024-03-08T05:47:13;28.87;;;26.00;;
15454;SDS011;21057;51.024;7.540;2024-03-08T05:49:41;27.57;;;25.10;;
15454;SDS011;21057;51.024;7.540;2024-03-08T05:52:09;26.73;;;24.63;;
15454;SDS011;21057;51.024;7.540;2024-03-08T05:54:36;26.83;;;24.57;;
15454;SDS011;21057;51.024;7.540;2024-03-08T05:57:03;27.23;;;25.27;;
15454;SDS011;21057;51.024;7.540;2024-03-08T05:59:31;29.30;;;26.53;;
15454;SDS011;21057;51.024;7.540;2024-03-08T06:01:58;28.23;;;25.70;;
15454;SDS011;21057;51.024;7.540;2024-03-08T06:04:26;27.70;;;25.23;;
15454;SDS011;21057;51.024;7.540;2024-03-08T06:06:54;30.60;;;27.10;;
15454;SDS011;21057;51.024;7.540;2024-03-08T06:09:23;26.60;;;24.40;;
15454;SDS011;21057;51.024;7.540;2024-03-08T06:11:50;29.23;;;26.60;;
15454;SDS011;21057;51.024;7.540;2024-03-08T06:14:16;29.43;;;26.43;;
15454;SDS011;21057;51.024;7.540;2024-03-08T06:16:44;28.43;;;25.93;;
15454;SDS011;21057;51.024;7.540;2024-03-08T06:19:11;30.27;;;27.23;;
15454;SDS011;21057;51.024;7.540;2024-03-08T06:21:40;30.63;;;27.67;;
15454;SDS011;21057;51.024;7.540;2024-03-08T06:24:07;30.10;;;27.27;;
15454;SDS011;21057;51.024;7.540;2024-03-08T06:26:33;28.90;;;26.33;;
15454;SDS011;21057;51.024;7.540;2024-03-08T06:29:02;27.73;;;25.10;;
15454;SDS011;21057;51.024;7.540;2024-03-08T06:31:31;27.60;;;25.33;;
15454;SDS011;21057;51.024;7.540;2024-03-08T06:33:58;28.63;;;25.67;;
15454;SDS011;21057;51.024;7.540;2024-03-08T06:36:25;27.20;;;25.20;;
15454;SDS011;21057;51.024;7.540;2024-03-08T06:38:54;29.03;;;26.57;;
15454;SDS011;21057;51.024;7.540;2024-03-08T06:41:22;32.40;;;27.33;;
15454;SDS011;21057;51.024;7.540;2024-03-08T06:43:49;28.50;;;26.27;;
15454;SDS011;21057;51.024;7.540;2024-03-08T06:46:17;27.97;;;25.50;;
15454;SDS011;21057;51.024;7.540;2024-03-08T06:48:45;27.43;;;24.97;;
15454;SDS011;21057;51.024;7.540;2024-03-08T06:51:12;28.77;;;26.13;;
15454;SDS011;21057;51.024;7.540;2024-03-08T06:53:39;26.97;;;24.70;;
15454;SDS011;21057;51.024;7.540;2024-03-08T06:56:07;27.03;;;24.37;;
15454;SDS011;21057;51.024;7.540;2024-03-08T06:58:34;26.80;;;24.53;;
15454;SDS011;21057;51.024;7.540;2024-03-08T07:01:01;28.20;;;25.60;;
15454;SDS011;21057;51.024;7.540;2024-03-08T07:03:29;27.20;;;24.87;;
15454;SDS011;21057;51.024;7.540;2024-03-08T07:05:57;25.87;;;24.03;;
15454;SDS011;21057;51.024;7.540;2024-03-08T07:08:24;28.40;;;25.73;;
15454;SDS011;21057;51.024;7.540;2024-03-08T07:10:52;27.87;;;25.40;;
15454;SDS011;21057;51.024;7.540;2024-03-08T07:13:20;28.40;;;26.10;;
15454;SDS011;21057;51.024;7.540;2024-03-08T07:15:47;29.37;;;26.83;;
15454;SDS011;21057;51.024;7.540;2024-03-08T07:18:13;27.97;;;25.37;;
15454;SDS011;21057;51.024;7.540;2024-03-08T07:20:40;29.57;;;26.97;;
15454;SDS011;21057;51.024;7.540;2024-03-08T07:23:08;27.77;;;25.40;;
15454;SDS011;21057;51.024;7.540;2024-03-08T07:25:35;28.13;;;25.73;;
15454;SDS011;21057;51.024;7.540;2024-03-08T07:28:04;30.80;;;26.27;;
15454;SDS011;21057;51.024;7.540;2024-03-08T07:30:33;31.03;;;27.20;;
15454;SDS011;21057;51.024;7.540;2024-03-08T07:33:26;28.70;;;25.83;;
15454;SDS011;21057;51.024;7.540;2024-03-08T07:35:53;28.10;;;25.57;;
15454;SDS011;21057;51.024;7.540;2024-03-08T07:38:20;27.40;;;25.30;;
15454;SDS011;21057;51.024;7.540;2024-03-08T07:40:47;29.90;;;27.03;;
15454;SDS011;21057;51.024;7.540;2024-03-08T07:43:14;32.83;;;29.37;;
15454;SDS011;21057;51.024;7.540;2024-03-08T07:45:42;31.20;;;25.47;;
15454;SDS011;21057;51.024;7.540;2024-03-08T07:48:09;27.40;;;25.00;;
15454;SDS011;21057;51.024;7.540;2024-03-08T07:50:37;27.50;;;25.23;;
15454;SDS011;21057;51.024;7.540;2024-03-08T07:53:04;26.80;;;24.53;;
15454;SDS011;21057;51.024;7.540;2024-03-08T07:55:32;29.03;;;26.00;;
15454;SDS011;21057;51.024;7.540;2024-03-08T07:58:00;29.83;;;27.03;;
15454;SDS011;21057;51.024;7.540;2024-03-08T08:00:27;33.10;;;26.07;;
15454;SDS011;21057;51.024;7.540;2024-03-08T08:02:57;42.00;;;26.13;;
15454;SDS011;21057;51.024;7.540;2024-03-08T08:05:24;29.50;;;26.70;;
15454;SDS011;21057;51.024;7.540;2024-03-08T08:07:51;29.30;;;26.33;;
15454;SDS011;21057;51.024;7.540;2024-03-08T08:10:18;30.00;;;27.23;;
15454;SDS011;21057;51.024;7.540;2024-03-08T08:12:46;30.20;;;27.40;;
15454;SDS011;21057;51.024;7.540;2024-03-08T08:15:13;28.13;;;25.53;;
15454;SDS011;21057;51.024;7.540;2024-03-08T08:17:41;29.20;;;26.50;;
15454;SDS011;21057;51.024;7.540;2024-03-08T08:20:10;28.70;;;25.97;;
15454;SDS011;21057;51.024;7.540;2024-03-08T08:22:38;30.97;;;28.00;;
15454;SDS011;21057;51.024;7.540;2024-03-08T08:25:05;29.90;;;27.27;;
15454;SDS011;21057;51.024;7.540;2024-03-08T08:27:32;28.57;;;26.30;;
15454;SDS011;21057;51.024;7.540;2024-03-08T08:30:01;27.57;;;25.37;;
15454;SDS011;21057;51.024;7.540;2024-03-08T08:32:29;28.97;;;26.17;;
15454;SDS011;21057;51.024;7.540;2024-03-08T08:34:56;27.17;;;24.63;;
15454;SDS011;21057;51.024;7.540;2024-03-08T08:37:26;29.03;;;26.13;;
15454;SDS011;21057;51.024;7.540;2024-03-08T08:39:53;27.77;;;24.93;;
15454;SDS011;21057;51.024;7.540;2024-03-08T08:42:20;29.90;;;27.37;;
15454;SDS011;21057;51.024;7.540;2024-03-08T08:44:47;29.10;;;26.37;;
15454;SDS011;21057;51.024;7.540;2024-03-08T08:47:15;28.50;;;26.00;;
15454;SDS011;21057;51.024;7.540;2024-03-08T08:49:43;29.87;;;27.30;;
15454;SDS011;21057;51.024;7.540;2024-03-08T08:52:11;30.40;;;27.70;;
15454;SDS011;21057;51.024;7.540;2024-03-08T08:54:39;27.40;;;25.57;;
15454;SDS011;21057;51.024;7.540;2024-03-08T08:57:07;26.77;;;24.50;;
15454;SDS011;21057;51.024;7.540;2024-03-08T08:59:33;26.97;;;24.90;;
15454;SDS011;21057;51.024;7.540;2024-03-08T09:02:01;25.60;;;23.53;;
15454;SDS011;21057;51.024;7.540;2024-03-08T09:04:28;28.23;;;25.80;;
15454;SDS011;21057;51.024;7.540;2024-03-08T09:06:55;28.00;;;25.30;;
15454;SDS011;21057;51.024;7.540;2024-03-08T09:09:22;27.27;;;24.73;;
15454;SDS011;21057;51.024;7.540;2024-03-08T09:11:51;28.20;;;25.87;;
15454;SDS011;21057;51.024;7.540;2024-03-08T09:14:19;27.17;;;25.00;;
15454;SDS011;21057;51.024;7.540;2024-03-08T09:16:46;28.03;;;25.47;;
15454;SDS011;21057;51.024;7.540;2024-03-08T09:19:13;28.90;;;26.10;;
15454;SDS011;21057;51.024;7.540;2024-03-08T09:21:40;26.67;;;24.57;;
15454;SDS011;21057;51.024;7.540;2024-03-08T09:24:07;27.53;;;25.10;;
15454;SDS011;21057;51.024;7.540;2024-03-08T09:26:33;28.93;;;26.57;;
15454;SDS011;21057;51.024;7.540;2024-03-08T09:29:01;26.20;;;23.97;;
15454;SDS011;21057;51.024;7.540;2024-03-08T09:31:28;27.40;;;24.80;;
15454;SDS011;21057;51.024;7.540;2024-03-08T09:33:55;26.70;;;24.30;;
15454;SDS011;21057;51.024;7.540;2024-03-08T09:36:22;27.23;;;24.57;;
15454;SDS011;21057;51.024;7.540;2024-03-08T09:38:50;27.07;;;24.40;;
15454;SDS011;21057;51.024;7.540;2024-03-08T09:41:17;28.10;;;25.67;;
15454;SDS011;21057;51.024;7.540;2024-03-08T09:43:45;27.20;;;24.97;;
15454;SDS011;21057;51.024;7.540;2024-03-08T09:46:14;28.43;;;25.73;;
15454;SDS011;21057;51.024;7.540;2024-03-08T09:48:41;26.17;;;23.83;;
15454;SDS011;21057;51.024;7.540;2024-03-08T09:51:08;27.47;;;25.10;;
15454;SDS011;21057;51.024;7.540;2024-03-08T09:53:38;26.97;;;24.20;;
15454;SDS011;21057;51.024;7.540;2024-03-08T09:56:06;25.97;;;23.60;;
15454;SDS011;21057;51.024;7.540;2024-03-08T09:58:33;28.27;;;25.03;;
15454;SDS011;21057;51.024;7.540;2024-03-08T10:01:17;23.93;;;22.03;;
15454;SDS011;21057;51.024;7.540;2024-03-08T10:03:44;26.37;;;23.97;;
15454;SDS011;21057;51.024;7.540;2024-03-08T10:06:14;26.67;;;24.17;;
15454;SDS011;21057;51.024;7.540;2024-03-08T10:08:41;26.83;;;23.97;;
15454;SDS011;21057;51.024;7.540;2024-03-08T10:11:07;27.93;;;24.73;;
15454;SDS011;21057;51.024;7.540;2024-03-08T10:13:36;25.77;;;23.47;;
15454;SDS011;21057;51.024;7.540;2024-03-08T10:16:05;26.90;;;24.03;;
15454;SDS011;21057;51.024;7.540;2024-03-08T10:18:34;25.20;;;23.03;;
15454;SDS011;21057;51.024;7.540;2024-03-08T10:21:04;26.77;;;24.30;;
15454;SDS011;21057;51.024;7.540;2024-03-08T10:23:32;25.90;;;23.70;;
15454;SDS011;21057;51.024;7.540;2024-03-08T10:26:12;25.43;;;23.43;;
15454;SDS011;21057;51.024;7.540;2024-03-08T10:28:40;27.37;;;24.70;;
15454;SDS011;21057;51.024;7.540;2024-03-08T10:31:08;26.17;;;23.80;;
15454;SDS011;21057;51.024;7.540;2024-03-08T10:33:37;25.40;;;23.10;;
15454;SDS011;21057;51.024;7.540;2024-03-08T10:36:05;26.60;;;24.00;;
15454;SDS011;21057;51.024;7.540;2024-03-08T10:38:35;25.40;;;23.00;;
15454;SDS011;21057;51.024;7.540;2024-03-08T10:41:04;25.50;;;23.20;;
15454;SDS011;21057;51.024;7.540;2024-03-08T10:43:32;26.63;;;24.23;;
15454;SDS011;21057;51.024;7.540;2024-03-08T10:46:12;27.43;;;24.93;;
15454;SDS011;21057;51.024;7.540;2024-03-08T10:48:49;26.83;;;24.40;;
15454;SDS011;21057;51.024;7.540;2024-03-08T10:51:18;28.57;;;25.87;;
15454;SDS011;21057;51.024;7.540;2024-03-08T10:53:46;27.50;;;24.80;;
15454;SDS011;21057;51.024;7.540;2024-03-08T10:56:16;28.30;;;25.60;;
15454;SDS011;21057;51.024;7.540;2024-03-08T10:58:43;27.47;;;24.83;;
15454;SDS011;21057;51.024;7.540;2024-03-08T11:01:12;28.40;;;26.20;;
15454;SDS011;21057;51.024;7.540;2024-03-08T11:03:46;26.50;;;24.23;;
15454;SDS011;21057;51.024;7.540;2024-03-08T11:06:18;26.93;;;24.50;;
15454;SDS011;21057;51.024;7.540;2024-03-08T11:08:48;26.23;;;24.13;;
15454;SDS011;21057;51.024;7.540;2024-03-08T11:11:26;27.20;;;24.90;;
15454;SDS011;21057;51.024;7.540;2024-03-08T11:13:55;26.10;;;23.90;;
15454;SDS011;21057;51.024;7.540;2024-03-08T11:16:38;25.30;;;23.20;;
15454;SDS011;21057;51.024;7.540;2024-03-08T11:19:25;24.87;;;22.73;;
15454;SDS011;21057;51.024;7.540;2024-03-08T11:22:00;25.00;;;22.80;;
15454;SDS011;21057;51.024;7.540;2024-03-08T11:24:28;24.57;;;22.47;;
15454;SDS011;21057;51.024;7.540;2024-03-08T11:27:05;24.67;;;22.67;;
15454;SDS011;21057;51.024;7.540;2024-03-08T11:29:35;23.90;;;22.00;;
15454;SDS011;21057;51.024;7.540;2024-03-08T11:32:05;24.60;;;22.37;;
15454;SDS011;21057;51.024;7.540;2024-03-08T11:34:37;24.30;;;22.07;;
15454;SDS011;21057;51.024;7.540;2024-03-08T11:37:05;24.53;;;22.33;;
15454;SDS011;21057;51.024;7.540;2024-03-08T11:39:37;25.07;;;22.83;;
15454;SDS011;21057;51.024;7.540;2024-03-08T11:42:05;24.37;;;22.37;;
15454;SDS011;21057;51.024;7.540;2024-03-08T11:44:33;24.40;;;22.17;;
15454;SDS011;21057;51.024;7.540;2024-03-08T11:47:01;24.70;;;22.53;;
15454;SDS011;21057;51.024;7.540;2024-03-08T11:49:31;25.53;;;23.30;;
15454;SDS011;21057;51.024;7.540;2024-03-08T11:52:00;24.53;;;22.43;;
15454;SDS011;21057;51.024;7.540;2024-03-08T11:54:28;24.37;;;22.37;;
15454;SDS011;21057;51.024;7.540;2024-03-08T11:56:55;23.13;;;21.23;;
15454;SDS011;21057;51.024;7.540;2024-03-08T11:59:25;24.57;;;22.47;;
15454;SDS011;21057;51.024;7.540;2024-03-08T12:01:59;24.50;;;22.20;;
15454;SDS011;21057;51.024;7.540;2024-03-08T12:04:28;24.53;;;22.53;;
15454;SDS011;21057;51.024;7.540;2024-03-08T12:06:56;24.13;;;22.33;;
15454;SDS011;21057;51.024;7.540;2024-03-08T12:09:27;23.90;;;21.83;;
15454;SDS011;21057;51.024;7.540;2024-03-08T12:11:54;24.40;;;22.33;;
15454;SDS011;21057;51.024;7.540;2024-03-08T12:14:21;24.43;;;22.63;;
15454;SDS011;21057;51.024;7.540;2024-03-08T12:16:50;25.30;;;23.30;;
15454;SDS011;21057;51.024;7.540;2024-03-08T12:19:17;26.33;;;24.10;;
15454;SDS011;21057;51.024;7.540;2024-03-08T12:21:44;24.83;;;22.73;;
15454;SDS011;21057;51.024;7.540;2024-03-08T12:24:14;24.70;;;22.90;;
15454;SDS011;21057;51.024;7.540;2024-03-08T12:26:45;25.50;;;23.47;;
15454;SDS011;21057;51.024;7.540;2024-03-08T12:29:14;24.40;;;22.50;;
15454;SDS011;21057;51.024;7.540;2024-03-08T12:31:43;25.73;;;23.37;;
15454;SDS011;21057;51.024;7.540;2024-03-08T12:34:10;25.80;;;23.60;;
15454;SDS011;21057;51.024;7.540;2024-03-08T12:36:43;26.80;;;24.63;;
15454;SDS011;21057;51.024;7.540;2024-03-08T12:39:12;24.93;;;23.07;;
15454;SDS011;21057;51.024;7.540;2024-03-08T12:41:41;25.63;;;23.37;;
15454;SDS011;21057;51.024;7.540;2024-03-08T12:44:09;24.17;;;22.47;;
15454;SDS011;21057;51.024;7.540;2024-03-08T12:46:37;23.93;;;22.03;;
15454;SDS011;21057;51.024;7.540;2024-03-08T12:49:07;24.97;;;22.87;;
15454;SDS011;21057;51.024;7.540;2024-03-08T12:51:35;24.87;;;22.77;;
15454;SDS011;21057;51.024;7.540;2024-03-08T12:54:04;26.70;;;24.40;;
15454;SDS011;21057;51.024;7.540;2024-03-08T12:56:32;25.20;;;23.03;;
15454;SDS011;21057;51.024;7.540;2024-03-08T12:59:00;25.57;;;23.23;;
15454;SDS011;21057;51.024;7.540;2024-03-08T13:01:29;24.73;;;22.73;;
15454;SDS011;21057;51.024;7.540;2024-03-08T13:03:57;26.43;;;24.03;;
15454;SDS011;21057;51.024;7.540;2024-03-08T13:06:25;26.10;;;23.80;;
15454;SDS011;21057;51.024;7.540;2024-03-08T13:08:53;26.13;;;23.63;;
15454;SDS011;21057;51.024;7.540;2024-03-08T13:11:21;25.50;;;23.30;;
15454;SDS011;21057;51.024;7.540;2024-03-08T13:13:49;24.43;;;22.23;;
15454;SDS011;21057;51.024;7.540;2024-03-08T13:16:16;25.50;;;23.30;;
15454;SDS011;21057;51.024;7.540;2024-03-08T13:18:45;25.63;;;23.53;;
15454;SDS011;21057;51.024;7.540;2024-03-08T13:21:14;25.57;;;23.17;;
15454;SDS011;21057;51.024;7.540;2024-03-08T13:23:45;26.43;;;24.23;;
15454;SDS011;21057;51.024;7.540;2024-03-08T13:26:14;25.97;;;23.50;;
15454;SDS011;21057;51.024;7.540;2024-03-08T13:28:42;27.67;;;25.17;;
15454;SDS011;21057;51.024;7.540;2024-03-08T13:31:10;25.27;;;22.90;;
15454;SDS011;21057;51.024;7.540;2024-03-08T13:33:37;26.03;;;23.70;;
15454;SDS011;21057;51.024;7.540;2024-03-08T13:36:10;26.80;;;24.53;;
15454;SDS011;21057;51.024;7.540;2024-03-08T13:38:40;26.03;;;23.80;;
15454;SDS011;21057;51.024;7.540;2024-03-08T13:41:09;26.90;;;24.20;;
15454;SDS011;21057;51.024;7.540;2024-03-08T13:43:40;25.93;;;23.63;;
15454;SDS011;21057;51.024;7.540;2024-03-08T13:46:07;26.20;;;23.93;;
15454;SDS011;21057;51.024;7.540;2024-03-08T13:48:36;26.60;;;23.93;;
15454;SDS011;21057;51.024;7.540;2024-03-08T13:51:03;26.33;;;24.13;;
15454;SDS011;21057;51.024;7.540;2024-03-08T13:53:33;27.27;;;24.73;;
15454;SDS011;21057;51.024;7.540;2024-03-08T13:56:00;26.57;;;24.27;;
15454;SDS011;21057;51.024;7.540;2024-03-08T13:58:28;26.63;;;24.33;;
15454;SDS011;21057;51.024;7.540;2024-03-08T14:00:55;27.20;;;24.87;;
15454;SDS011;21057;51.024;7.540;2024-03-08T14:03:21;26.47;;;24.17;;
15454;SDS011;21057;51.024;7.540;2024-03-08T14:05:49;25.33;;;23.17;;
15454;SDS011;21057;51.024;7.540;2024-03-08T14:08:16;26.65;;;24.27;;
15454;SDS011;21057;51.024;7.540;2024-03-08T14:13:55;26.67;;;24.17;;
15454;SDS011;21057;51.024;7.540;2024-03-08T14:16:22;26.27;;;23.88;;
15454;SDS011;21057;51.024;7.540;2024-03-08T14:19:03;26.95;;;24.63;;
15454;SDS011;21057;51.024;7.540;2024-03-08T14:21:30;26.63;;;24.13;;
15454;SDS011;21057;51.024;7.540;2024-03-08T14:24:04;26.88;;;24.50;;
15454;SDS011;21057;51.024;7.540;2024-03-08T14:26:51;27.55;;;24.80;;
15454;SDS011;21057;51.024;7.540;2024-03-08T14:29:20;27.70;;;24.97;;